createdAt,value
2023-04-02T00:02:32.150Z,94437.44
2023-04-02T00:05:31.303Z,94441.78
2023-04-02T00:08:03.367Z,94435.41
2023-04-02T00:10:33.748Z,94439.16
2023-04-02T00:13:07.774Z,94445.91
2023-04-02T00:15:36.854Z,94442.53
2023-04-02T00:18:06.048Z,94432.03
2023-04-02T00:20:42.689Z,94440.97
2023-04-02T00:23:13.973Z,94442.81
2023-04-02T00:25:46.346Z,94451.59
2023-04-02T00:28:15.965Z,94446.13
2023-04-02T00:30:49.144Z,94449.44
2023-04-02T00:33:19.535Z,94440.66
2023-04-02T00:35:49.560Z,94444.13
2023-04-02T00:38:23.748Z,94440.72
2023-04-02T00:40:53.773Z,94442.66
2023-04-02T00:43:22.808Z,94419.50
2023-04-02T00:45:56.308Z,94442.97
2023-04-02T00:48:42.077Z,94444.88
2023-04-02T00:51:17.001Z,94448.00
2023-04-02T00:53:49.191Z,94440.19
2023-04-02T00:56:22.182Z,94447.28
2023-04-02T00:58:54.526Z,94443.69
2023-04-02T01:01:27.609Z,94435.19
2023-04-02T01:03:58.327Z,94439.16
2023-04-02T01:06:31.266Z,94450.34
2023-04-02T01:09:13.336Z,94454.91
2023-04-02T01:11:59.537Z,94452.41
2023-04-02T01:14:41.081Z,94448.34
2023-04-02T01:17:23.065Z,94437.84
2023-04-02T01:20:38.808Z,94440.13
2023-04-02T01:23:14.606Z,94392.41
2023-04-02T01:25:48.283Z,94451.25
2023-04-02T01:28:20.837Z,94435.72
2023-04-02T01:30:54.149Z,94452.91
2023-04-02T01:33:24.843Z,94458.25
2023-04-02T01:35:58.599Z,94462.06
2023-04-02T01:38:33.644Z,94465.38
2023-04-02T01:41:08.861Z,94458.78
2023-04-02T01:43:44.973Z,94459.13
2023-04-02T01:46:27.237Z,94459.13
2023-04-02T01:48:55.466Z,94453.31
2023-04-02T01:51:31.844Z,94457.34
2023-04-02T01:54:02.249Z,94448.00
2023-04-02T01:56:31.509Z,94380.41
2023-04-02T01:59:01.298Z,94455.09
2023-04-02T02:01:36.839Z,94439.34
2023-04-02T02:04:06.051Z,94450.00
2023-04-02T02:06:34.287Z,94450.75
2023-04-02T02:09:04.818Z,94429.06
2023-04-02T02:11:36.519Z,94436.53
2023-04-02T02:14:14.128Z,94443.47
2023-04-02T02:16:44.177Z,94445.94
2023-04-02T02:19:24.164Z,94443.25
2023-04-02T02:21:54.742Z,94404.53
2023-04-02T02:24:25.219Z,94440.84
2023-04-02T02:27:05.756Z,94439.09
2023-04-02T02:29:38.345Z,94412.44
2023-04-02T02:32:11.331Z,94455.09
2023-04-02T02:34:42.420Z,94456.25
2023-04-02T02:37:16.087Z,94437.25
2023-04-02T02:39:46.575Z,94463.59
2023-04-02T02:42:22.400Z,94451.25
2023-04-02T02:44:52.221Z,94453.25
2023-04-02T02:47:28.665Z,94448.63
2023-04-02T02:50:01.417Z,94438.03
2023-04-02T02:52:32.940Z,94449.34
2023-04-02T02:55:04.523Z,94463.22
2023-04-02T02:57:37.444Z,94460.38
2023-04-02T03:00:09.830Z,94464.59
2023-04-02T03:02:43.232Z,94461.47
2023-04-02T03:05:19.583Z,94460.56
2023-04-02T03:07:48.265Z,94464.16
2023-04-02T03:10:20.588Z,94454.69
2023-04-02T03:12:54.849Z,94455.78
2023-04-02T03:15:28.579Z,94459.38
2023-04-02T03:18:02.927Z,94461.31
2023-04-02T03:20:37.578Z,94465.53
2023-04-02T03:23:09.960Z,94473.59
2023-04-02T03:25:42.834Z,94475.19
2023-04-02T03:28:16.944Z,94474.59
2023-04-02T03:30:50.022Z,94473.06
2023-04-02T03:33:25.102Z,94475.31
2023-04-02T03:35:59.206Z,94475.47
2023-04-02T03:38:31.400Z,94469.97
2023-04-02T03:41:08.618Z,94474.50
2023-04-02T03:43:41.974Z,94473.81
2023-04-02T03:46:24.501Z,94486.53
2023-04-02T03:48:56.173Z,94480.53
2023-04-02T03:51:29.032Z,94457.47
2023-04-02T03:53:57.558Z,94477.75
2023-04-02T03:56:31.529Z,94471.59
2023-04-02T03:59:08.270Z,94478.78
2023-04-02T04:01:42.921Z,94472.16
2023-04-02T04:04:17.326Z,94415.66
2023-04-02T04:06:47.667Z,94475.94
2023-04-02T04:09:25.282Z,94488.28
2023-04-02T04:11:57.468Z,94488.91
2023-04-02T04:14:32.149Z,94493.00
2023-04-02T04:17:05.504Z,94497.66
2023-04-02T04:19:41.974Z,94489.31
2023-04-02T04:22:18.010Z,94499.56
2023-04-02T04:24:47.217Z,94444.00
2023-04-02T04:27:25.175Z,94509.34
2023-04-02T04:29:58.963Z,94505.53
2023-04-02T04:32:33.886Z,94504.63
2023-04-02T04:35:09.386Z,94489.19
2023-04-02T04:37:43.310Z,94498.97
2023-04-02T04:40:18.477Z,94506.66
2023-04-02T04:42:49.756Z,94496.72
2023-04-02T04:45:50.560Z,94508.00
2023-04-02T04:48:22.461Z,94511.69
2023-04-02T04:50:57.671Z,94493.47
2023-04-02T04:53:27.615Z,94508.06
2023-04-02T04:56:05.991Z,94486.41
2023-04-02T04:58:51.135Z,94510.72
2023-04-02T05:01:26.890Z,94522.34
2023-04-02T05:04:01.660Z,94515.75
2023-04-02T05:06:44.059Z,94515.94
2023-04-02T05:09:18.931Z,94510.66
2023-04-02T05:11:51.707Z,94452.66
2023-04-02T05:14:30.991Z,94512.97
2023-04-02T05:17:08.041Z,94509.50
2023-04-02T05:19:43.366Z,94505.19
2023-04-02T05:22:25.278Z,94491.94
2023-04-02T05:25:01.209Z,94515.13
2023-04-02T05:27:40.995Z,94521.38
2023-04-02T05:30:20.256Z,94513.88
2023-04-02T05:32:52.473Z,94514.22
2023-04-02T05:35:25.797Z,94527.53
2023-04-02T05:37:55.517Z,94520.06
2023-04-02T05:40:28.573Z,94527.19
2023-04-02T05:42:58.942Z,94518.34
2023-04-02T05:45:32.913Z,94523.00
2023-04-02T05:48:05.929Z,94516.72
2023-04-02T05:50:37.906Z,94530.00
2023-04-02T05:53:14.720Z,94536.03
2023-04-02T05:55:53.313Z,94541.53
2023-04-02T06:01:15.415Z,94528.94
2023-04-02T06:03:51.960Z,94538.94
2023-04-02T06:06:29.189Z,94539.91
2023-04-02T06:09:05.660Z,94538.16
2023-04-02T06:11:42.224Z,94540.59
2023-04-02T06:14:13.054Z,94538.06
2023-04-02T06:16:42.371Z,94540.94
2023-04-02T06:19:20.743Z,94540.41
2023-04-02T06:21:50.906Z,94552.34
2023-04-02T06:24:25.008Z,94542.94
2023-04-02T06:26:57.928Z,94491.63
2023-04-02T06:29:34.139Z,94544.88
2023-04-02T06:32:03.614Z,94536.63
2023-04-02T06:34:33.072Z,94544.72
2023-04-02T06:37:04.441Z,94537.03
2023-04-02T06:39:33.696Z,94535.06
2023-04-02T06:42:05.458Z,94514.44
2023-04-02T06:44:36.811Z,94536.66
2023-04-02T06:47:12.780Z,94537.81
2023-04-02T06:49:46.733Z,94545.94
2023-04-02T06:52:21.513Z,94550.69
2023-04-02T06:54:50.846Z,94509.47
2023-04-02T06:57:20.219Z,94549.44
2023-04-02T06:59:48.233Z,94438.88
2023-04-02T07:02:28.944Z,94555.94
2023-04-02T07:05:02.415Z,94553.34
2023-04-02T07:07:30.377Z,94556.53
2023-04-02T07:09:59.756Z,94560.88
2023-04-02T07:12:28.052Z,94555.44
2023-04-02T07:14:55.973Z,94563.66
2023-04-02T07:17:23.902Z,94555.91
2023-04-02T07:19:51.855Z,94524.34
2023-04-02T07:22:22.860Z,94562.91
2023-04-02T07:24:51.284Z,94513.88
2023-04-02T07:27:21.335Z,94575.38
2023-04-02T07:29:49.498Z,94533.31
2023-04-02T07:32:19.550Z,94570.25
2023-04-02T07:34:49.008Z,94569.78
2023-04-02T07:37:17.236Z,94550.94
2023-04-02T07:39:45.172Z,94565.56
2023-04-02T07:42:13.224Z,94563.13
2023-04-02T07:44:44.908Z,94560.97
2023-04-02T07:47:12.777Z,94577.41
2023-04-02T07:49:40.919Z,94566.25
2023-04-02T07:52:09.221Z,94568.88
2023-04-02T07:54:38.470Z,94564.84
2023-04-02T07:57:06.609Z,94562.25
2023-04-02T07:59:34.912Z,94549.16
2023-04-02T08:02:04.504Z,94562.22
2023-04-02T08:04:32.817Z,94566.69
2023-04-02T08:07:04.424Z,94565.91
2023-04-02T08:09:32.251Z,94555.84
2023-04-02T08:12:00.118Z,94572.47
2023-04-02T08:14:27.993Z,94574.91
2023-04-02T08:16:56.980Z,94580.63
2023-04-02T08:19:26.488Z,94583.28
2023-04-02T08:21:54.617Z,94581.75
2023-04-02T08:24:22.685Z,94586.06
2023-04-02T08:26:51.512Z,94579.47
2023-04-02T08:29:19.484Z,94554.69
2023-04-02T08:31:48.006Z,94577.56
2023-04-02T08:34:16.364Z,94576.56
2023-04-02T08:36:46.325Z,94571.69
2023-04-02T08:39:14.790Z,94568.97
2023-04-02T08:41:48.542Z,94584.78
2023-04-02T08:44:38.550Z,94582.03
2023-04-02T08:47:07.444Z,94583.16
2023-04-02T08:49:41.153Z,94580.19
2023-04-02T08:52:22.192Z,94586.72
2023-04-02T08:54:51.871Z,94584.19
2023-04-02T08:57:26.612Z,94546.06
2023-04-02T09:00:00.192Z,94584.69
2023-04-02T09:02:36.708Z,94573.75
2023-04-02T09:05:08.296Z,94577.28
2023-04-02T09:07:37.822Z,94533.16
2023-04-02T09:10:06.292Z,94578.09
2023-04-02T09:12:34.250Z,94531.84
2023-04-02T09:15:18.581Z,94567.59
2023-04-02T09:17:54.095Z,94568.34
2023-04-02T09:20:26.402Z,94565.13
2023-04-02T09:22:58.907Z,94543.09
2023-04-02T09:25:29.886Z,94582.38
2023-04-02T09:28:01.746Z,94577.31
2023-04-02T09:30:42.876Z,94582.72
2023-04-02T09:33:11.322Z,94570.69
2023-04-02T09:35:56.473Z,94570.66
2023-04-02T09:38:29.087Z,94571.44
2023-04-02T09:41:00.956Z,94572.91
2023-04-02T09:43:30.376Z,94526.34
2023-04-02T09:46:01.402Z,94566.81
2023-04-02T09:48:32.818Z,94537.13
2023-04-02T09:51:12.375Z,94561.75
2023-04-02T09:53:43.080Z,94558.91
2023-04-02T09:56:13.900Z,94551.69
2023-04-02T09:58:44.204Z,94555.03
2023-04-02T10:01:31.537Z,94561.75
2023-04-02T10:04:00.552Z,94544.59
2023-04-02T10:06:30.405Z,94555.84
2023-04-02T10:09:20.585Z,94558.06
2023-04-02T10:11:48.705Z,94536.50
2023-04-02T10:14:24.089Z,94549.38
2023-04-02T10:16:56.436Z,94544.94
2023-04-02T10:19:29.885Z,94544.44
2023-04-02T10:22:01.515Z,94548.81
2023-04-02T10:24:30.772Z,94531.53
2023-04-02T10:27:06.790Z,94534.09
2023-04-02T10:30:04.057Z,94536.63
2023-04-02T10:32:36.723Z,94535.59
2023-04-02T10:35:12.665Z,94538.78
2023-04-02T10:38:11.166Z,94534.56
2023-04-02T10:40:44.944Z,94542.91
2023-04-02T10:43:40.258Z,94536.59
2023-04-02T10:46:16.151Z,94536.19
2023-04-02T10:48:53.535Z,94528.41
2023-04-02T10:51:33.328Z,94528.81
2023-04-02T10:54:07.106Z,94525.75
2023-04-02T10:56:48.033Z,94524.38
2023-04-02T10:59:22.507Z,94519.28
2023-04-02T11:01:52.668Z,94516.34
2023-04-02T11:04:25.383Z,94522.78
2023-04-02T11:07:11.162Z,94513.50
2023-04-02T11:09:45.701Z,94499.97
2023-04-02T11:12:23.753Z,94505.59
2023-04-02T11:14:53.307Z,94511.63
2023-04-02T11:17:22.949Z,94517.97
2023-04-02T11:19:51.206Z,94511.81
2023-04-02T11:22:21.858Z,94509.06
2023-04-02T11:24:51.722Z,94469.13
2023-04-02T11:27:27.451Z,94513.84
2023-04-02T11:30:06.784Z,94514.00
2023-04-02T11:32:37.416Z,94465.63
2023-04-02T11:35:37.625Z,94509.94
2023-04-02T11:38:38.787Z,94495.34
2023-04-02T11:41:07.009Z,94508.63
2023-04-02T11:44:03.541Z,94502.50
2023-04-02T11:46:46.615Z,94504.03
2023-04-02T11:49:41.608Z,94485.63
2023-04-02T11:52:32.393Z,94477.72
2023-04-02T11:55:33.739Z,94487.44
2023-04-02T11:58:38.298Z,94490.94
2023-04-02T12:01:45.416Z,94482.16
2023-04-02T12:04:45.741Z,94495.84
2023-04-02T12:07:46.743Z,94497.06
2023-04-02T12:10:19.323Z,94496.44
2023-04-02T12:12:47.517Z,94489.03
2023-04-02T12:15:42.472Z,94486.91
2023-04-02T12:18:17.151Z,94494.72
2023-04-02T12:20:52.911Z,94494.94
2023-04-02T12:23:23.745Z,94482.16
2023-04-02T12:25:58.441Z,94485.50
2023-04-02T12:28:28.949Z,94492.03
2023-04-02T12:31:13.988Z,94492.66
2023-04-02T12:33:42.935Z,94487.59
2023-04-02T12:36:23.880Z,94487.75
2023-04-02T12:38:54.467Z,94480.22
2023-04-02T12:41:25.107Z,94475.63
2023-04-02T12:43:59.790Z,94471.97
2023-04-02T12:46:28.893Z,94445.78
2023-04-02T12:49:03.205Z,94474.72
2023-04-02T12:51:33.101Z,94475.91
2023-04-02T12:54:01.207Z,94472.03
2023-04-02T12:56:29.154Z,94471.72
2023-04-02T12:58:58.153Z,94464.13
2023-04-02T13:01:28.644Z,94479.03
2023-04-02T13:04:04.974Z,94471.44
2023-04-02T13:06:35.679Z,94464.19
2023-04-02T13:09:06.674Z,94465.88
2023-04-02T13:11:37.225Z,94467.81
2023-04-02T13:14:07.486Z,94459.25
2023-04-02T13:16:37.394Z,94462.34
2023-04-02T13:19:27.829Z,94445.59
2023-04-02T13:22:01.746Z,94458.16
2023-04-02T13:24:32.374Z,94456.69
2023-04-02T13:27:02.238Z,94427.28
2023-04-02T13:29:31.373Z,94459.81
2023-04-02T13:32:01.230Z,94455.13
2023-04-02T13:34:29.705Z,94391.34
2023-04-02T13:36:59.686Z,94437.16
2023-04-02T13:39:30.263Z,94423.69
2023-04-02T13:42:00.144Z,94429.47
2023-04-02T13:44:30.360Z,94430.97
2023-04-02T13:46:59.804Z,94446.00
2023-04-02T13:49:29.570Z,94446.41
2023-04-02T13:52:03.352Z,94448.38
2023-04-02T13:54:35.090Z,94437.44
2023-04-02T13:57:03.239Z,94437.41
2023-04-02T13:59:31.526Z,94439.72
2023-04-02T14:02:05.616Z,94445.59
2023-04-02T14:04:40.207Z,94436.63
2023-04-02T14:07:33.217Z,94434.88
2023-04-02T14:10:06.515Z,94438.00
2023-04-02T14:12:47.202Z,94435.31
2023-04-02T14:15:29.139Z,94434.00
2023-04-02T14:18:13.845Z,94420.03
2023-04-02T14:20:53.622Z,94437.31
2023-04-02T14:23:42.593Z,94436.09
2023-04-02T14:26:19.823Z,94427.63
2023-04-02T14:28:58.568Z,94432.00
2023-04-02T14:31:35.963Z,94383.06
2023-04-02T14:34:12.138Z,94390.13
2023-04-02T14:36:56.517Z,94430.47
2023-04-02T14:39:38.195Z,94426.56
2023-04-02T14:42:13.906Z,94423.38
2023-04-02T14:44:46.835Z,94433.56
2023-04-02T14:47:20.119Z,94404.03
2023-04-02T14:49:51.664Z,94422.69
2023-04-02T14:52:24.634Z,94422.34
2023-04-02T14:54:57.642Z,94431.25
2023-04-02T14:57:30.814Z,94431.66
2023-04-02T15:00:03.905Z,94440.63
2023-04-02T15:02:39.388Z,94432.47
2023-04-02T15:05:17.646Z,94441.44
2023-04-02T15:07:51.802Z,94439.13
2023-04-02T15:10:27.505Z,94442.63
2023-04-02T15:12:56.720Z,94404.94
2023-04-02T15:15:42.593Z,94441.50
2023-04-02T15:18:14.733Z,94450.88
2023-04-02T15:20:52.588Z,94447.75
2023-04-02T15:23:32.786Z,94450.09
2023-04-02T15:26:25.898Z,94453.94
2023-04-02T15:29:04.941Z,94452.78
2023-04-02T15:31:36.860Z,94449.28
2023-04-02T15:34:18.424Z,94454.75
2023-04-02T15:37:00.332Z,94455.50
2023-04-02T15:39:40.158Z,94454.72
2023-04-02T15:42:20.009Z,94457.06
2023-04-02T15:45:03.250Z,94427.88
2023-04-02T15:47:39.837Z,94448.50
2023-04-02T15:50:16.514Z,94440.34
2023-04-02T15:52:54.549Z,94443.44
2023-04-02T15:55:26.756Z,94450.06
2023-04-02T15:58:19.550Z,94453.56
2023-04-02T16:00:57.689Z,94446.13
2023-04-02T16:03:52.947Z,94452.34
2023-04-02T16:06:28.071Z,94457.03
2023-04-02T16:09:07.526Z,94452.31
2023-04-02T16:11:36.451Z,94422.75
2023-04-02T16:14:18.032Z,94467.88
2023-04-02T16:16:49.157Z,94399.31
2023-04-02T16:19:27.080Z,94460.44
2023-04-02T16:22:02.586Z,94465.09
2023-04-02T16:24:30.799Z,94461.19
2023-04-02T16:27:11.806Z,94467.75
2023-04-02T16:29:55.706Z,94466.63
2023-04-02T16:32:43.907Z,94469.31
2023-04-02T16:35:41.849Z,94402.28
2023-04-02T16:38:23.404Z,94474.25
2023-04-02T16:41:07.885Z,94473.03
2023-04-02T16:43:47.466Z,94476.91
2023-04-02T16:46:38.219Z,94483.09
2023-04-02T16:49:18.806Z,94476.84
2023-04-02T16:51:58.164Z,94482.22
2023-04-02T16:54:32.762Z,94456.84
2023-04-02T16:57:18.935Z,94480.56
2023-04-02T16:59:57.541Z,94479.38
2023-04-02T17:02:40.008Z,94490.59
2023-04-02T17:05:20.454Z,94480.03
2023-04-02T17:08:01.600Z,94498.25
2023-04-02T17:10:32.634Z,94442.81
2023-04-02T17:13:14.225Z,94501.22
2023-04-02T17:15:43.456Z,94487.16
2023-04-02T17:18:19.843Z,94504.88
2023-04-02T17:20:48.098Z,94514.00
2023-04-02T17:23:17.170Z,94511.66
2023-04-02T17:25:51.610Z,94513.97
2023-04-02T17:28:26.620Z,94525.16
2023-04-02T17:30:58.755Z,94498.50
2023-04-02T17:33:28.598Z,94525.41
2023-04-02T17:36:25.249Z,94538.19
2023-04-02T17:39:06.079Z,94546.69
2023-04-02T17:41:41.525Z,94491.97
2023-04-02T17:44:27.971Z,94567.13
2023-04-02T17:47:02.174Z,94565.59
2023-04-02T17:49:42.539Z,94567.44
2023-04-02T17:52:20.517Z,94560.06
2023-04-02T17:54:59.212Z,94571.97
2023-04-02T17:57:38.907Z,94573.84
2023-04-02T18:00:33.854Z,94566.78
2023-04-02T18:03:19.654Z,94571.38
2023-04-02T18:05:55.785Z,94572.47
2023-04-02T18:08:34.697Z,94574.34
2023-04-02T18:11:11.104Z,94587.06
2023-04-02T18:13:47.723Z,94515.03
2023-04-02T18:16:28.344Z,94577.03
2023-04-02T18:19:11.379Z,94603.38
2023-04-02T18:21:47.142Z,94608.72
2023-04-02T18:24:34.576Z,94612.50
2023-04-02T18:27:25.408Z,94611.91
2023-04-02T18:30:00.965Z,94608.34
2023-04-02T18:32:44.762Z,94611.31
2023-04-02T18:35:19.181Z,94618.88
2023-04-02T18:38:02.102Z,94617.31
2023-04-02T18:40:43.361Z,94627.00
2023-04-02T18:43:22.106Z,94643.66
2023-04-02T18:45:59.991Z,94643.22
2023-04-02T18:48:40.894Z,94638.97
2023-04-02T18:51:15.095Z,94638.91
2023-04-02T18:53:44.694Z,94637.41
2023-04-02T18:56:15.369Z,94640.09
2023-04-02T18:58:52.871Z,94644.31
2023-04-02T19:01:27.966Z,94646.09
2023-04-02T19:04:01.964Z,94641.84
2023-04-02T19:06:37.791Z,94633.59
2023-04-02T19:09:15.108Z,94642.97
2023-04-02T19:11:43.207Z,94645.22
2023-04-02T19:14:14.411Z,94642.84
2023-04-02T19:17:03.415Z,94650.13
2023-04-02T19:19:41.048Z,94590.69
2023-04-02T19:22:17.534Z,94648.00
2023-04-02T19:25:13.842Z,94644.47
2023-04-02T19:27:55.175Z,94655.13
2023-04-02T19:30:39.608Z,94639.50
2023-04-02T19:33:19.049Z,94651.16
2023-04-02T19:35:53.888Z,94651.78
2023-04-02T19:38:44.572Z,94634.94
2023-04-02T19:41:26.230Z,94646.94
2023-04-02T19:43:56.089Z,94652.81
2023-04-02T19:46:24.822Z,94651.59
2023-04-02T19:48:59.845Z,94658.50
2023-04-02T19:51:27.833Z,94663.09
2023-04-02T19:53:55.739Z,94662.25
2023-04-02T19:56:26.816Z,94661.75
2023-04-02T19:58:56.621Z,94657.75
2023-04-02T20:01:24.631Z,94659.69
2023-04-02T20:03:52.614Z,94663.09
2023-04-02T20:06:21.451Z,94626.91
2023-04-02T20:08:49.362Z,94673.13
2023-04-02T20:11:17.454Z,94676.88
2023-04-02T20:13:46.696Z,94672.50
2023-04-02T20:16:14.935Z,94672.88
2023-04-02T20:18:43.229Z,94662.88
2023-04-02T20:21:11.577Z,94678.44
2023-04-02T20:23:39.626Z,94673.25
2023-04-02T20:26:07.902Z,94678.22
2023-04-02T20:28:36.182Z,94663.41
2023-04-02T20:31:10.682Z,94661.34
2023-04-02T20:33:39.595Z,94674.59
2023-04-02T20:36:09.513Z,94669.50
2023-04-02T20:38:37.700Z,94670.66
2023-04-02T20:41:07.652Z,94665.25
2023-04-02T20:43:36.227Z,94619.78
2023-04-02T20:46:08.922Z,94676.41
2023-04-02T20:48:41.038Z,94675.13
2023-04-02T20:51:10.537Z,94673.72
2023-04-02T20:53:39.195Z,94677.53
2023-04-02T20:56:08.711Z,94661.03
2023-04-02T20:58:38.133Z,94678.59
2023-04-02T21:01:11.524Z,94675.22
2023-04-02T21:03:40.967Z,94646.06
2023-04-02T21:06:14.080Z,94633.91
2023-04-02T21:08:42.025Z,94672.94
2023-04-02T21:11:10.906Z,94690.09
2023-04-02T21:13:39.192Z,94695.31
2023-04-02T21:16:14.894Z,94690.72
2023-04-02T21:18:44.690Z,94688.28
2023-04-02T21:21:14.414Z,94675.47
2023-04-02T21:23:43.510Z,94693.13
2023-04-02T21:26:12.901Z,94693.41
2023-04-02T21:28:40.817Z,94688.59
2023-04-02T21:31:11.616Z,94702.69
2023-04-02T21:33:41.458Z,94701.81
2023-04-02T21:36:13.463Z,94694.91
2023-04-02T21:38:43.426Z,94632.97
2023-04-02T21:41:13.113Z,94713.84
2023-04-02T21:43:41.507Z,94713.03
2023-04-02T21:46:09.638Z,94687.78
2023-04-02T21:48:37.630Z,94702.56
2023-04-02T21:51:07.754Z,94706.13
2023-04-02T21:53:37.071Z,94723.44
2023-04-02T21:56:06.953Z,94712.66
2023-04-02T21:58:35.494Z,94718.75
2023-04-02T22:01:05.349Z,94725.97
2023-04-02T22:03:35.842Z,94705.13
2023-04-02T22:06:05.638Z,94708.25
2023-04-02T22:08:33.808Z,94723.84
2023-04-02T22:11:08.295Z,94716.44
2023-04-02T22:13:37.194Z,94718.28
2023-04-02T22:16:07.079Z,94713.56
2023-04-02T22:18:35.740Z,94660.88
2023-04-02T22:21:03.582Z,94719.53
2023-04-02T22:23:31.969Z,94724.00
2023-04-02T22:26:01.501Z,94716.38
2023-04-02T22:28:30.853Z,94722.47
2023-04-02T22:31:05.516Z,94720.66
2023-04-02T22:33:33.931Z,94716.88
2023-04-02T22:36:04.730Z,94726.97
2023-04-02T22:38:32.916Z,94723.38
2023-04-02T22:41:08.369Z,94729.03
2023-04-02T22:43:38.722Z,94724.34
2023-04-02T22:46:08.360Z,94719.28
2023-04-02T22:48:36.691Z,94709.78
2023-04-02T22:51:04.880Z,94726.84
2023-04-02T22:53:32.908Z,94735.78
2023-04-02T22:56:03.999Z,94716.66
2023-04-02T22:58:31.877Z,94726.59
2023-04-02T23:01:05.218Z,94726.34
2023-04-02T23:03:33.172Z,94723.06
2023-04-02T23:06:02.000Z,94731.69
2023-04-02T23:08:29.983Z,94726.72
2023-04-02T23:11:02.723Z,94721.69
2023-04-02T23:13:30.863Z,94733.44
2023-04-02T23:15:59.327Z,94732.81
2023-04-02T23:18:28.673Z,94716.75
2023-04-02T23:20:57.433Z,94689.59
2023-04-02T23:23:25.399Z,94739.25
2023-04-02T23:26:04.546Z,94723.19
2023-04-02T23:28:32.467Z,94728.19
2023-04-02T23:31:00.891Z,94734.50
2023-04-02T23:33:30.593Z,94729.66
2023-04-02T23:35:58.638Z,94726.06
2023-04-02T23:38:27.929Z,94717.59
2023-04-02T23:40:55.940Z,94726.44
2023-04-02T23:43:23.800Z,94727.09
2023-04-02T23:45:52.007Z,94655.38
2023-04-02T23:48:19.881Z,94728.41
2023-04-02T23:50:49.163Z,94720.81
2023-04-02T23:53:18.753Z,94718.78
2023-04-02T23:55:46.875Z,94717.34
2023-04-02T23:58:14.797Z,94682.38
